sensor_id;sensor_type;location;lat;lon;timestamp;temperature;humidity
66936;DHT22;53847;51.984;5.896;2022-09-01T00:02:25;17.00;64.10
66936;DHT22;53847;51.984;5.896;2022-09-01T00:04:51;16.70;63.90
66936;DHT22;53847;51.984;5.896;2022-09-01T00:07:18;16.70;64.10
66936;DHT22;53847;51.984;5.896;2022-09-01T00:09:44;17.00;64.20
66936;DHT22;53847;51.984;5.896;2022-09-01T00:12:10;17.00;64.20
66936;DHT22;53847;51.984;5.896;2022-09-01T00:14:38;16.90;64.20
66936;DHT22;53847;51.984;5.896;2022-09-01T00:17:07;17.30;64.50
66936;DHT22;53847;51.984;5.896;2022-09-01T00:19:34;16.90;64.40
66936;DHT22;53847;51.984;5.896;2022-09-01T00:22:00;17.30;64.70
66936;DHT22;53847;51.984;5.896;2022-09-01T00:24:27;16.80;64.40
66936;DHT22;53847;51.984;5.896;2022-09-01T00:26:54;16.90;64.50
66936;DHT22;53847;51.984;5.896;2022-09-01T00:29:22;16.80;65.20
66936;DHT22;53847;51.984;5.896;2022-09-01T00:31:48;16.60;64.40
66936;DHT22;53847;51.984;5.896;2022-09-01T00:34:15;16.80;64.80
66936;DHT22;53847;51.984;5.896;2022-09-01T00:36:42;17.20;65.00
66936;DHT22;53847;51.984;5.896;2022-09-01T00:39:08;16.80;65.00
66936;DHT22;53847;51.984;5.896;2022-09-01T00:41:37;16.70;64.80
66936;DHT22;53847;51.984;5.896;2022-09-01T00:44:07;16.80;64.70
66936;DHT22;53847;51.984;5.896;2022-09-01T00:46:43;16.50;64.60
66936;DHT22;53847;51.984;5.896;2022-09-01T00:49:14;16.70;64.90
66936;DHT22;53847;51.984;5.896;2022-09-01T00:51:44;16.70;65.20
66936;DHT22;53847;51.984;5.896;2022-09-01T00:54:14;16.60;65.40
66936;DHT22;53847;51.984;5.896;2022-09-01T00:56:42;16.60;65.30
66936;DHT22;53847;51.984;5.896;2022-09-01T00:59:09;17.20;65.70
66936;DHT22;53847;51.984;5.896;2022-09-01T01:01:36;16.90;65.70
66936;DHT22;53847;51.984;5.896;2022-09-01T01:04:04;16.60;66.40
66936;DHT22;53847;51.984;5.896;2022-09-01T01:06:31;16.50;65.80
66936;DHT22;53847;51.984;5.896;2022-09-01T01:08:57;16.50;66.40
66936;DHT22;53847;51.984;5.896;2022-09-01T01:11:26;16.40;65.70
66936;DHT22;53847;51.984;5.896;2022-09-01T01:13:59;16.60;65.70
66936;DHT22;53847;51.984;5.896;2022-09-01T01:16:27;16.50;65.70
66936;DHT22;53847;51.984;5.896;2022-09-01T01:18:54;16.50;65.70
66936;DHT22;53847;51.984;5.896;2022-09-01T01:21:27;16.50;65.60
66936;DHT22;53847;51.984;5.896;2022-09-01T01:24:05;16.40;65.50
66936;DHT22;53847;51.984;5.896;2022-09-01T01:26:33;16.50;65.50
66936;DHT22;53847;51.984;5.896;2022-09-01T01:29:00;16.40;65.30
66936;DHT22;53847;51.984;5.896;2022-09-01T01:31:26;16.50;65.30
66936;DHT22;53847;51.984;5.896;2022-09-01T01:33:55;16.70;65.20
66936;DHT22;53847;51.984;5.896;2022-09-01T01:36:30;16.40;65.20
66936;DHT22;53847;51.984;5.896;2022-09-01T01:39:00;16.40;65.10
66936;DHT22;53847;51.984;5.896;2022-09-01T01:41:29;16.50;65.00
66936;DHT22;53847;51.984;5.896;2022-09-01T01:43:57;16.40;64.70
66936;DHT22;53847;51.984;5.896;2022-09-01T01:46:24;16.40;64.50
66936;DHT22;53847;51.984;5.896;2022-09-01T01:48:51;16.50;64.40
66936;DHT22;53847;51.984;5.896;2022-09-01T01:51:19;16.70;64.20
66936;DHT22;53847;51.984;5.896;2022-09-01T01:53:46;16.50;63.70
66936;DHT22;53847;51.984;5.896;2022-09-01T01:56:13;16.30;63.40
66936;DHT22;53847;51.984;5.896;2022-09-01T01:58:39;17.00;63.40
66936;DHT22;53847;51.984;5.896;2022-09-01T02:01:09;17.00;63.00
66936;DHT22;53847;51.984;5.896;2022-09-01T02:03:36;16.70;62.40
66936;DHT22;53847;51.984;5.896;2022-09-01T02:06:02;16.90;62.10
66936;DHT22;53847;51.984;5.896;2022-09-01T02:08:30;16.60;61.50
66936;DHT22;53847;51.984;5.896;2022-09-01T02:10:56;16.60;61.20
66936;DHT22;53847;51.984;5.896;2022-09-01T02:13:23;16.70;60.80
66936;DHT22;53847;51.984;5.896;2022-09-01T02:15:52;16.90;60.50
66936;DHT22;53847;51.984;5.896;2022-09-01T02:18:23;17.00;60.20
66936;DHT22;53847;51.984;5.896;2022-09-01T02:20:51;17.00;60.00
66936;DHT22;53847;51.984;5.896;2022-09-01T02:23:18;17.00;59.80
66936;DHT22;53847;51.984;5.896;2022-09-01T02:25:45;16.80;59.30
66936;DHT22;53847;51.984;5.896;2022-09-01T02:28:13;17.10;59.20
66936;DHT22;53847;51.984;5.896;2022-09-01T02:30:41;17.10;58.80
66936;DHT22;53847;51.984;5.896;2022-09-01T02:33:07;16.80;58.60
66936;DHT22;53847;51.984;5.896;2022-09-01T02:35:35;17.10;58.60
66936;DHT22;53847;51.984;5.896;2022-09-01T02:38:01;17.40;58.50
66936;DHT22;53847;51.984;5.896;2022-09-01T02:40:27;17.20;58.30
66936;DHT22;53847;51.984;5.896;2022-09-01T02:42:53;17.20;58.30
66936;DHT22;53847;51.984;5.896;2022-09-01T02:45:20;17.20;58.50
66936;DHT22;53847;51.984;5.896;2022-09-01T02:47:47;17.30;58.60
66936;DHT22;53847;51.984;5.896;2022-09-01T02:50:13;17.20;58.70
66936;DHT22;53847;51.984;5.896;2022-09-01T02:52:39;17.40;58.90
66936;DHT22;53847;51.984;5.896;2022-09-01T02:55:08;17.10;58.90
66936;DHT22;53847;51.984;5.896;2022-09-01T02:57:34;17.40;59.20
66936;DHT22;53847;51.984;5.896;2022-09-01T03:00:04;17.30;59.30
66936;DHT22;53847;51.984;5.896;2022-09-01T03:02:30;16.60;59.00
66936;DHT22;53847;51.984;5.896;2022-09-01T03:04:57;17.20;59.40
66936;DHT22;53847;51.984;5.896;2022-09-01T03:07:23;17.00;59.40
66936;DHT22;53847;51.984;5.896;2022-09-01T03:09:49;16.90;59.40
66936;DHT22;53847;51.984;5.896;2022-09-01T03:12:16;16.90;59.40
66936;DHT22;53847;51.984;5.896;2022-09-01T03:14:42;16.60;59.30
66936;DHT22;53847;51.984;5.896;2022-09-01T03:17:08;16.50;59.20
66936;DHT22;53847;51.984;5.896;2022-09-01T03:19:34;17.10;59.50
66936;DHT22;53847;51.984;5.896;2022-09-01T03:22:00;16.80;59.40
66936;DHT22;53847;51.984;5.896;2022-09-01T03:24:30;17.10;59.70
66936;DHT22;53847;51.984;5.896;2022-09-01T03:26:57;16.70;59.50
66936;DHT22;53847;51.984;5.896;2022-09-01T03:29:23;16.30;59.40
66936;DHT22;53847;51.984;5.896;2022-09-01T03:31:49;16.60;59.60
66936;DHT22;53847;51.984;5.896;2022-09-01T03:34:16;16.70;59.80
66936;DHT22;53847;51.984;5.896;2022-09-01T03:36:48;16.70;59.80
66936;DHT22;53847;51.984;5.896;2022-09-01T03:39:14;16.60;59.70
66936;DHT22;53847;51.984;5.896;2022-09-01T03:41:40;16.90;60.00
66936;DHT22;53847;51.984;5.896;2022-09-01T03:44:07;16.60;60.00
66936;DHT22;53847;51.984;5.896;2022-09-01T03:46:33;16.50;60.00
66936;DHT22;53847;51.984;5.896;2022-09-01T03:48:59;16.70;60.20
66936;DHT22;53847;51.984;5.896;2022-09-01T03:51:26;16.80;60.40
66936;DHT22;53847;51.984;5.896;2022-09-01T03:53:53;16.50;60.20
66936;DHT22;53847;51.984;5.896;2022-09-01T03:56:21;16.90;60.30
66936;DHT22;53847;51.984;5.896;2022-09-01T03:58:47;16.40;59.90
66936;DHT22;53847;51.984;5.896;2022-09-01T04:01:15;16.80;60.20
66936;DHT22;53847;51.984;5.896;2022-09-01T04:03:42;16.00;59.70
66936;DHT22;53847;51.984;5.896;2022-09-01T04:06:09;16.10;59.70
66936;DHT22;53847;51.984;5.896;2022-09-01T04:08:35;16.40;59.80
66936;DHT22;53847;51.984;5.896;2022-09-01T04:11:11;16.00;59.70
66936;DHT22;53847;51.984;5.896;2022-09-01T04:13:39;16.50;59.80
66936;DHT22;53847;51.984;5.896;2022-09-01T04:16:14;16.40;60.40
66936;DHT22;53847;51.984;5.896;2022-09-01T04:18:41;16.40;59.70
66936;DHT22;53847;51.984;5.896;2022-09-01T04:21:07;16.60;59.70
66936;DHT22;53847;51.984;5.896;2022-09-01T04:23:37;16.40;59.60
66936;DHT22;53847;51.984;5.896;2022-09-01T04:26:11;16.40;59.50
66936;DHT22;53847;51.984;5.896;2022-09-01T04:28:44;16.30;59.40
66936;DHT22;53847;51.984;5.896;2022-09-01T04:31:17;16.30;59.40
66936;DHT22;53847;51.984;5.896;2022-09-01T04:33:46;16.30;59.40
66936;DHT22;53847;51.984;5.896;2022-09-01T04:36:25;16.40;59.50
66936;DHT22;53847;51.984;5.896;2022-09-01T04:38:57;16.30;59.50
66936;DHT22;53847;51.984;5.896;2022-09-01T04:41:30;16.30;59.50
66936;DHT22;53847;51.984;5.896;2022-09-01T04:44:00;16.60;59.60
66936;DHT22;53847;51.984;5.896;2022-09-01T04:46:27;16.30;59.60
66936;DHT22;53847;51.984;5.896;2022-09-01T04:48:54;16.20;59.50
66936;DHT22;53847;51.984;5.896;2022-09-01T04:51:21;15.70;59.30
66936;DHT22;53847;51.984;5.896;2022-09-01T04:53:50;16.20;59.60
66936;DHT22;53847;51.984;5.896;2022-09-01T04:56:19;16.20;59.70
66936;DHT22;53847;51.984;5.896;2022-09-01T04:58:50;16.20;59.80
66936;DHT22;53847;51.984;5.896;2022-09-01T05:01:22;16.10;59.80
66936;DHT22;53847;51.984;5.896;2022-09-01T05:03:50;15.90;59.80
66936;DHT22;53847;51.984;5.896;2022-09-01T05:06:34;16.00;59.90
66936;DHT22;53847;51.984;5.896;2022-09-01T05:09:00;16.10;60.20
66936;DHT22;53847;51.984;5.896;2022-09-01T05:11:39;16.00;60.20
66936;DHT22;53847;51.984;5.896;2022-09-01T05:14:15;16.00;60.30
66936;DHT22;53847;51.984;5.896;2022-09-01T05:16:42;15.90;60.40
66936;DHT22;53847;51.984;5.896;2022-09-01T05:19:08;15.90;60.50
66936;DHT22;53847;51.984;5.896;2022-09-01T05:21:36;15.60;60.40
66936;DHT22;53847;51.984;5.896;2022-09-01T05:24:03;15.70;60.50
66936;DHT22;53847;51.984;5.896;2022-09-01T05:26:31;15.60;60.40
66936;DHT22;53847;51.984;5.896;2022-09-01T05:29:02;15.80;60.70
66936;DHT22;53847;51.984;5.896;2022-09-01T05:31:30;15.50;60.50
66936;DHT22;53847;51.984;5.896;2022-09-01T05:33:58;15.60;60.60
66936;DHT22;53847;51.984;5.896;2022-09-01T05:36:24;15.90;60.90
66936;DHT22;53847;51.984;5.896;2022-09-01T05:38:52;15.80;60.90
66936;DHT22;53847;51.984;5.896;2022-09-01T05:41:20;15.80;60.90
66936;DHT22;53847;51.984;5.896;2022-09-01T05:43:47;16.40;61.20
66936;DHT22;53847;51.984;5.896;2022-09-01T05:46:16;16.10;61.10
66936;DHT22;53847;51.984;5.896;2022-09-01T05:48:44;15.80;60.70
66936;DHT22;53847;51.984;5.896;2022-09-01T05:51:11;15.80;60.80
66936;DHT22;53847;51.984;5.896;2022-09-01T05:53:38;15.60;60.50
66936;DHT22;53847;51.984;5.896;2022-09-01T05:56:06;16.20;60.80
66936;DHT22;53847;51.984;5.896;2022-09-01T05:58:33;16.00;60.90
66936;DHT22;53847;51.984;5.896;2022-09-01T06:01:01;16.10;60.90
66936;DHT22;53847;51.984;5.896;2022-09-01T06:03:27;16.50;61.00
66936;DHT22;53847;51.984;5.896;2022-09-01T06:05:55;16.80;60.00
66936;DHT22;53847;51.984;5.896;2022-09-01T06:08:26;17.20;59.30
66936;DHT22;53847;51.984;5.896;2022-09-01T06:10:52;17.60;58.50
66936;DHT22;53847;51.984;5.896;2022-09-01T06:13:19;17.80;56.90
66936;DHT22;53847;51.984;5.896;2022-09-01T06:15:45;17.90;55.80
66936;DHT22;53847;51.984;5.896;2022-09-01T06:18:11;18.00;55.20
66936;DHT22;53847;51.984;5.896;2022-09-01T06:20:47;17.70;55.30
66936;DHT22;53847;51.984;5.896;2022-09-01T06:23:15;17.60;55.60
66936;DHT22;53847;51.984;5.896;2022-09-01T06:25:43;17.50;55.70
66936;DHT22;53847;51.984;5.896;2022-09-01T06:28:10;17.70;56.10
66936;DHT22;53847;51.984;5.896;2022-09-01T06:30:36;17.60;56.00
66936;DHT22;53847;51.984;5.896;2022-09-01T06:33:09;17.30;56.00
66936;DHT22;53847;51.984;5.896;2022-09-01T06:35:40;16.90;56.00
66936;DHT22;53847;51.984;5.896;2022-09-01T06:38:08;17.20;56.70
66936;DHT22;53847;51.984;5.896;2022-09-01T06:40:45;17.40;57.30
66936;DHT22;53847;51.984;5.896;2022-09-01T06:43:14;17.90;56.50
66936;DHT22;53847;51.984;5.896;2022-09-01T06:45:46;18.10;56.10
66936;DHT22;53847;51.984;5.896;2022-09-01T06:48:12;18.50;55.80
66936;DHT22;53847;51.984;5.896;2022-09-01T06:50:39;18.80;55.90
66936;DHT22;53847;51.984;5.896;2022-09-01T06:53:08;19.00;54.50
66936;DHT22;53847;51.984;5.896;2022-09-01T06:55:38;19.40;54.10
66936;DHT22;53847;51.984;5.896;2022-09-01T06:58:06;19.10;53.50
66936;DHT22;53847;51.984;5.896;2022-09-01T07:00:35;18.90;53.00
66936;DHT22;53847;51.984;5.896;2022-09-01T07:03:02;19.00;53.20
66936;DHT22;53847;51.984;5.896;2022-09-01T07:05:47;19.10;53.20
66936;DHT22;53847;51.984;5.896;2022-09-01T07:08:15;19.30;53.80
66936;DHT22;53847;51.984;5.896;2022-09-01T07:11:02;19.70;54.50
66936;DHT22;53847;51.984;5.896;2022-09-01T07:13:29;20.10;53.80
66936;DHT22;53847;51.984;5.896;2022-09-01T07:15:55;20.50;53.20
66936;DHT22;53847;51.984;5.896;2022-09-01T07:18:23;20.80;51.60
66936;DHT22;53847;51.984;5.896;2022-09-01T07:20:51;21.00;51.00
66936;DHT22;53847;51.984;5.896;2022-09-01T07:23:18;21.90;51.50
66936;DHT22;53847;51.984;5.896;2022-09-01T07:25:47;21.80;50.70
66936;DHT22;53847;51.984;5.896;2022-09-01T07:28:28;22.10;50.60
66936;DHT22;53847;51.984;5.896;2022-09-01T07:30:54;22.50;48.40
66936;DHT22;53847;51.984;5.896;2022-09-01T07:33:22;22.60;47.90
66936;DHT22;53847;51.984;5.896;2022-09-01T07:35:50;22.70;47.80
66936;DHT22;53847;51.984;5.896;2022-09-01T07:38:16;23.00;46.60
66936;DHT22;53847;51.984;5.896;2022-09-01T07:40:42;22.70;46.30
66936;DHT22;53847;51.984;5.896;2022-09-01T07:43:40;22.10;46.00
66936;DHT22;53847;51.984;5.896;2022-09-01T07:46:25;22.20;45.50
66936;DHT22;53847;51.984;5.896;2022-09-01T07:48:53;22.20;46.20
66936;DHT22;53847;51.984;5.896;2022-09-01T07:51:21;21.60;46.40
66936;DHT22;53847;51.984;5.896;2022-09-01T07:53:48;21.50;46.90
66936;DHT22;53847;51.984;5.896;2022-09-01T07:56:16;21.00;47.00
66936;DHT22;53847;51.984;5.896;2022-09-01T07:58:47;21.20;47.20
66936;DHT22;53847;51.984;5.896;2022-09-01T08:01:17;20.70;47.30
66936;DHT22;53847;51.984;5.896;2022-09-01T08:03:47;20.80;47.80
66936;DHT22;53847;51.984;5.896;2022-09-01T08:06:17;21.00;48.30
66936;DHT22;53847;51.984;5.896;2022-09-01T08:08:43;20.50;48.40
66936;DHT22;53847;51.984;5.896;2022-09-01T08:11:19;20.40;48.80
66936;DHT22;53847;51.984;5.896;2022-09-01T08:13:45;20.30;49.10
66936;DHT22;53847;51.984;5.896;2022-09-01T08:16:12;20.10;49.20
66936;DHT22;53847;51.984;5.896;2022-09-01T08:18:40;20.20;49.50
66936;DHT22;53847;51.984;5.896;2022-09-01T08:21:09;20.00;49.80
66936;DHT22;53847;51.984;5.896;2022-09-01T08:23:55;20.00;50.00
66936;DHT22;53847;51.984;5.896;2022-09-01T08:26:24;20.00;50.10
66936;DHT22;53847;51.984;5.896;2022-09-01T08:28:52;20.10;50.30
66936;DHT22;53847;51.984;5.896;2022-09-01T08:31:19;20.10;50.30
66936;DHT22;53847;51.984;5.896;2022-09-01T08:33:47;20.10;50.20
66936;DHT22;53847;51.984;5.896;2022-09-01T08:36:15;20.20;50.10
66936;DHT22;53847;51.984;5.896;2022-09-01T08:38:42;20.70;50.50
66936;DHT22;53847;51.984;5.896;2022-09-01T08:44:43;20.30;50.30
66936;DHT22;53847;51.984;5.896;2022-09-01T08:47:16;20.30;50.10
66936;DHT22;53847;51.984;5.896;2022-09-01T08:49:43;20.60;49.70
66936;DHT22;53847;51.984;5.896;2022-09-01T08:57:45;20.70;49.40
66936;DHT22;53847;51.984;5.896;2022-09-01T09:00:22;20.60;48.90
66936;DHT22;53847;51.984;5.896;2022-09-01T09:05:56;20.80;48.50
66936;DHT22;53847;51.984;5.896;2022-09-01T09:14:36;20.90;47.30
66936;DHT22;53847;51.984;5.896;2022-09-01T09:16:46;21.00;47.10
66936;DHT22;53847;51.984;5.896;2022-09-01T09:21:52;21.20;45.60
66936;DHT22;53847;51.984;5.896;2022-09-01T09:24:33;21.30;45.50
66936;DHT22;53847;51.984;5.896;2022-09-01T09:27:00;21.30;45.10
66936;DHT22;53847;51.984;5.896;2022-09-01T09:29:26;21.40;44.40
66936;DHT22;53847;51.984;5.896;2022-09-01T09:32:05;21.20;44.40
66936;DHT22;53847;51.984;5.896;2022-09-01T09:34:33;21.30;44.70
66936;DHT22;53847;51.984;5.896;2022-09-01T09:37:28;21.60;44.40
66936;DHT22;53847;51.984;5.896;2022-09-01T09:40:13;21.30;44.20
66936;DHT22;53847;51.984;5.896;2022-09-01T09:45:22;21.90;44.20
66936;DHT22;53847;51.984;5.896;2022-09-01T09:47:49;21.80;43.40
66936;DHT22;53847;51.984;5.896;2022-09-01T09:52:51;22.00;42.30
66936;DHT22;53847;51.984;5.896;2022-09-01T09:55:28;22.20;41.40
66936;DHT22;53847;51.984;5.896;2022-09-01T09:57:59;22.20;40.80
66936;DHT22;53847;51.984;5.896;2022-09-01T10:00:31;21.90;40.90
66936;DHT22;53847;51.984;5.896;2022-09-01T10:03:01;22.30;41.10
66936;DHT22;53847;51.984;5.896;2022-09-01T10:05:41;22.70;40.90
66936;DHT22;53847;51.984;5.896;2022-09-01T10:08:13;22.40;40.40
66936;DHT22;53847;51.984;5.896;2022-09-01T10:10:53;22.60;40.30
66936;DHT22;53847;51.984;5.896;2022-09-01T10:13:22;22.30;38.90
66936;DHT22;53847;51.984;5.896;2022-09-01T10:15:51;22.70;39.10
66936;DHT22;53847;51.984;5.896;2022-09-01T10:18:21;22.70;39.50
66936;DHT22;53847;51.984;5.896;2022-09-01T10:20:58;22.40;39.00
66936;DHT22;53847;51.984;5.896;2022-09-01T10:23:25;22.70;39.30
66936;DHT22;53847;51.984;5.896;2022-09-01T10:25:58;22.80;38.80
66936;DHT22;53847;51.984;5.896;2022-09-01T10:28:26;22.90;38.50
66936;DHT22;53847;51.984;5.896;2022-09-01T10:30:53;22.90;38.60
66936;DHT22;53847;51.984;5.896;2022-09-01T10:33:21;22.80;38.40
66936;DHT22;53847;51.984;5.896;2022-09-01T10:35:50;22.90;38.40
66936;DHT22;53847;51.984;5.896;2022-09-01T10:38:26;22.90;38.50
66936;DHT22;53847;51.984;5.896;2022-09-01T10:40:55;22.90;38.50
66936;DHT22;53847;51.984;5.896;2022-09-01T10:45:47;23.00;37.80
66936;DHT22;53847;51.984;5.896;2022-09-01T10:53:42;23.10;38.20
66936;DHT22;53847;51.984;5.896;2022-09-01T10:56:36;23.10;38.10
66936;DHT22;53847;51.984;5.896;2022-09-01T10:59:09;23.10;38.20
66936;DHT22;53847;51.984;5.896;2022-09-01T11:14:58;23.50;37.90
66936;DHT22;53847;51.984;5.896;2022-09-01T11:17:26;23.50;37.90
66936;DHT22;53847;51.984;5.896;2022-09-01T11:19:57;23.40;37.70
66936;DHT22;53847;51.984;5.896;2022-09-01T11:22:45;23.30;37.70
66936;DHT22;53847;51.984;5.896;2022-09-01T11:25:31;23.50;37.70
66936;DHT22;53847;51.984;5.896;2022-09-01T11:28:00;23.40;37.90
66936;DHT22;53847;51.984;5.896;2022-09-01T11:33:03;23.50;37.50
66936;DHT22;53847;51.984;5.896;2022-09-01T11:35:32;23.50;37.30
66936;DHT22;53847;51.984;5.896;2022-09-01T11:38:03;23.50;37.40
66936;DHT22;53847;51.984;5.896;2022-09-01T11:40:32;23.50;37.40
66936;DHT22;53847;51.984;5.896;2022-09-01T11:43:06;23.70;37.20
66936;DHT22;53847;51.984;5.896;2022-09-01T11:45:38;23.70;37.20
66936;DHT22;53847;51.984;5.896;2022-09-01T11:48:10;23.50;37.00
66936;DHT22;53847;51.984;5.896;2022-09-01T11:50:40;23.70;36.90
66936;DHT22;53847;51.984;5.896;2022-09-01T11:53:12;23.70;37.10
66936;DHT22;53847;51.984;5.896;2022-09-01T11:55:45;23.80;37.40
66936;DHT22;53847;51.984;5.896;2022-09-01T12:00:54;23.90;37.20
66936;DHT22;53847;51.984;5.896;2022-09-01T12:03:27;24.20;37.00
66936;DHT22;53847;51.984;5.896;2022-09-01T12:06:05;23.90;37.00
66936;DHT22;53847;51.984;5.896;2022-09-01T12:08:36;24.00;36.90
66936;DHT22;53847;51.984;5.896;2022-09-01T12:11:08;24.10;36.90
66936;DHT22;53847;51.984;5.896;2022-09-01T12:13:35;24.40;36.80
66936;DHT22;53847;51.984;5.896;2022-09-01T12:16:07;24.50;37.00
66936;DHT22;53847;51.984;5.896;2022-09-01T12:18:36;24.20;36.30
66936;DHT22;53847;51.984;5.896;2022-09-01T12:21:04;24.30;36.50
66936;DHT22;53847;51.984;5.896;2022-09-01T12:26:05;24.30;36.40
66936;DHT22;53847;51.984;5.896;2022-09-01T12:28:34;24.40;36.50
66936;DHT22;53847;51.984;5.896;2022-09-01T12:31:06;24.30;36.10
66936;DHT22;53847;51.984;5.896;2022-09-01T12:33:32;24.50;36.50
66936;DHT22;53847;51.984;5.896;2022-09-01T12:38:47;24.50;36.80
66936;DHT22;53847;51.984;5.896;2022-09-01T12:41:32;24.50;36.80
66936;DHT22;53847;51.984;5.896;2022-09-01T12:44:28;24.50;36.80
66936;DHT22;53847;51.984;5.896;2022-09-01T12:46:56;24.50;36.60
66936;DHT22;53847;51.984;5.896;2022-09-01T12:49:36;24.20;36.30
66936;DHT22;53847;51.984;5.896;2022-09-01T12:54:48;24.70;35.80
66936;DHT22;53847;51.984;5.896;2022-09-01T12:57:39;25.00;36.70
66936;DHT22;53847;51.984;5.896;2022-09-01T13:00:19;24.80;35.70
66936;DHT22;53847;51.984;5.896;2022-09-01T13:05:34;24.50;34.20
66936;DHT22;53847;51.984;5.896;2022-09-01T13:08:02;24.80;33.30
66936;DHT22;53847;51.984;5.896;2022-09-01T13:10:34;24.90;33.40
66936;DHT22;53847;51.984;5.896;2022-09-01T13:13:00;24.50;33.90
66936;DHT22;53847;51.984;5.896;2022-09-01T13:15:27;24.80;34.60
66936;DHT22;53847;51.984;5.896;2022-09-01T13:17:53;24.50;34.60
66936;DHT22;53847;51.984;5.896;2022-09-01T13:20:19;24.80;34.90
66936;DHT22;53847;51.984;5.896;2022-09-01T13:22:45;24.80;35.10
66936;DHT22;53847;51.984;5.896;2022-09-01T13:25:13;24.50;34.80
66936;DHT22;53847;51.984;5.896;2022-09-01T13:27:41;25.40;35.20
66936;DHT22;53847;51.984;5.896;2022-09-01T13:30:07;24.70;34.40
66936;DHT22;53847;51.984;5.896;2022-09-01T13:32:33;25.00;34.50
66936;DHT22;53847;51.984;5.896;2022-09-01T13:34:59;24.80;34.40
66936;DHT22;53847;51.984;5.896;2022-09-01T13:37:25;25.30;34.80
66936;DHT22;53847;51.984;5.896;2022-09-01T13:39:51;24.80;34.50
66936;DHT22;53847;51.984;5.896;2022-09-01T13:42:17;24.90;33.80
66936;DHT22;53847;51.984;5.896;2022-09-01T13:44:46;25.60;34.00
66936;DHT22;53847;51.984;5.896;2022-09-01T13:47:13;24.90;34.00
66936;DHT22;53847;51.984;5.896;2022-09-01T13:49:39;25.20;33.80
66936;DHT22;53847;51.984;5.896;2022-09-01T13:52:05;25.10;34.10
66936;DHT22;53847;51.984;5.896;2022-09-01T13:54:31;25.20;34.30
66936;DHT22;53847;51.984;5.896;2022-09-01T13:56:57;25.10;34.40
66936;DHT22;53847;51.984;5.896;2022-09-01T13:59:23;25.10;34.50
66936;DHT22;53847;51.984;5.896;2022-09-01T14:01:49;24.90;34.40
66936;DHT22;53847;51.984;5.896;2022-09-01T14:04:15;25.10;34.00
66936;DHT22;53847;51.984;5.896;2022-09-01T14:06:42;25.20;33.80
66936;DHT22;53847;51.984;5.896;2022-09-01T14:09:10;25.60;34.10
66936;DHT22;53847;51.984;5.896;2022-09-01T14:11:36;25.70;34.30
66936;DHT22;53847;51.984;5.896;2022-09-01T14:14:02;25.60;34.00
66936;DHT22;53847;51.984;5.896;2022-09-01T14:16:29;25.50;33.70
66936;DHT22;53847;51.984;5.896;2022-09-01T14:18:55;25.50;33.80
66936;DHT22;53847;51.984;5.896;2022-09-01T14:21:21;25.50;33.80
66936;DHT22;53847;51.984;5.896;2022-09-01T14:23:47;25.80;34.00
66936;DHT22;53847;51.984;5.896;2022-09-01T14:26:14;25.70;33.90
66936;DHT22;53847;51.984;5.896;2022-09-01T14:28:42;25.60;33.80
66936;DHT22;53847;51.984;5.896;2022-09-01T14:31:10;25.60;33.70
66936;DHT22;53847;51.984;5.896;2022-09-01T14:33:37;25.60;33.50
66936;DHT22;53847;51.984;5.896;2022-09-01T14:36:04;25.80;33.70
66936;DHT22;53847;51.984;5.896;2022-09-01T14:38:31;25.50;33.60
66936;DHT22;53847;51.984;5.896;2022-09-01T14:40:57;25.90;33.70
66936;DHT22;53847;51.984;5.896;2022-09-01T14:43:23;25.60;33.30
66936;DHT22;53847;51.984;5.896;2022-09-01T14:45:49;25.60;33.40
66936;DHT22;53847;51.984;5.896;2022-09-01T14:48:26;25.60;33.60
66936;DHT22;53847;51.984;5.896;2022-09-01T14:50:52;25.50;33.70
66936;DHT22;53847;51.984;5.896;2022-09-01T14:53:18;25.40;33.40
66936;DHT22;53847;51.984;5.896;2022-09-01T14:55:44;25.20;33.20
66936;DHT22;53847;51.984;5.896;2022-09-01T14:58:10;25.40;33.70
66936;DHT22;53847;51.984;5.896;2022-09-01T15:00:36;25.80;34.10
66936;DHT22;53847;51.984;5.896;2022-09-01T15:03:03;25.50;33.90
66936;DHT22;53847;51.984;5.896;2022-09-01T15:05:29;25.60;34.00
66936;DHT22;53847;51.984;5.896;2022-09-01T15:07:56;25.60;34.00
66936;DHT22;53847;51.984;5.896;2022-09-01T15:10:23;25.60;34.20
66936;DHT22;53847;51.984;5.896;2022-09-01T15:12:51;25.50;34.20
66936;DHT22;53847;51.984;5.896;2022-09-01T15:15:17;25.50;34.10
66936;DHT22;53847;51.984;5.896;2022-09-01T15:17:43;25.50;34.10
66936;DHT22;53847;51.984;5.896;2022-09-01T15:20:09;25.70;34.20
66936;DHT22;53847;51.984;5.896;2022-09-01T15:22:35;25.50;34.10
66936;DHT22;53847;51.984;5.896;2022-09-01T15:25:01;25.10;34.00
66936;DHT22;53847;51.984;5.896;2022-09-01T15:27:28;25.50;34.40
66936;DHT22;53847;51.984;5.896;2022-09-01T15:29:54;25.20;34.30
66936;DHT22;53847;51.984;5.896;2022-09-01T15:32:20;25.50;34.60
66936;DHT22;53847;51.984;5.896;2022-09-01T15:34:46;25.80;34.80
66936;DHT22;53847;51.984;5.896;2022-09-01T15:37:12;25.40;34.60
66936;DHT22;53847;51.984;5.896;2022-09-01T15:39:38;25.40;34.60
66936;DHT22;53847;51.984;5.896;2022-09-01T15:42:04;25.20;34.60
66936;DHT22;53847;51.984;5.896;2022-09-01T15:44:30;25.40;34.70
66936;DHT22;53847;51.984;5.896;2022-09-01T15:46:57;25.40;34.70
66936;DHT22;53847;51.984;5.896;2022-09-01T15:49:23;25.40;34.70
66936;DHT22;53847;51.984;5.896;2022-09-01T15:51:49;25.40;34.80
66936;DHT22;53847;51.984;5.896;2022-09-01T15:54:18;25.50;35.10
66936;DHT22;53847;51.984;5.896;2022-09-01T15:56:45;25.50;34.90
66936;DHT22;53847;51.984;5.896;2022-09-01T15:59:11;25.30;34.70
66936;DHT22;53847;51.984;5.896;2022-09-01T16:01:40;25.30;34.60
66936;DHT22;53847;51.984;5.896;2022-09-01T16:04:08;25.80;34.90
66936;DHT22;53847;51.984;5.896;2022-09-01T16:06:35;25.50;34.50
66936;DHT22;53847;51.984;5.896;2022-09-01T16:09:01;25.60;34.30
66936;DHT22;53847;51.984;5.896;2022-09-01T16:11:27;25.40;34.40
66936;DHT22;53847;51.984;5.896;2022-09-01T16:13:53;25.70;34.70
66936;DHT22;53847;51.984;5.896;2022-09-01T16:22:09;25.50;34.80
66936;DHT22;53847;51.984;5.896;2022-09-01T16:24:51;25.40;34.70
66936;DHT22;53847;51.984;5.896;2022-09-01T16:27:20;25.40;34.60
66936;DHT22;53847;51.984;5.896;2022-09-01T16:29:59;25.50;34.60
66936;DHT22;53847;51.984;5.896;2022-09-01T16:32:26;25.70;34.90
66936;DHT22;53847;51.984;5.896;2022-09-01T16:34:52;25.90;35.10
66936;DHT22;53847;51.984;5.896;2022-09-01T16:40:39;25.40;34.70
66936;DHT22;53847;51.984;5.896;2022-09-01T16:48:46;25.10;34.50
66936;DHT22;53847;51.984;5.896;2022-09-01T16:53:56;25.00;34.40
66936;DHT22;53847;51.984;5.896;2022-09-01T17:02:30;25.00;34.70
66936;DHT22;53847;51.984;5.896;2022-09-01T17:05:00;24.80;34.60
66936;DHT22;53847;51.984;5.896;2022-09-01T17:10:07;25.20;35.00
66936;DHT22;53847;51.984;5.896;2022-09-01T17:12:45;24.90;34.90